sensor_id;sensor_type;location;lat;lon;timestamp;P1;durP1;ratioP1;P2;durP2;ratioP2
11943;SDS011;6031;50.220;10.122;2023-04-23T00:01:57;4.37;;;2.93;;
11943;SDS011;6031;50.220;10.122;2023-04-23T00:04:24;4.80;;;2.90;;
11943;SDS011;6031;50.220;10.122;2023-04-23T00:06:51;4.17;;;3.10;;
11943;SDS011;6031;50.220;10.122;2023-04-23T00:09:16;3.73;;;3.37;;
11943;SDS011;6031;50.220;10.122;2023-04-23T00:11:43;5.17;;;4.00;;
11943;SDS011;6031;50.220;10.122;2023-04-23T00:14:09;4.00;;;3.43;;
11943;SDS011;6031;50.220;10.122;2023-04-23T00:16:35;3.03;;;2.73;;
11943;SDS011;6031;50.220;10.122;2023-04-23T00:19:02;3.43;;;3.10;;
11943;SDS011;6031;50.220;10.122;2023-04-23T00:21:28;3.83;;;2.83;;
11943;SDS011;6031;50.220;10.122;2023-04-23T00:23:53;4.30;;;2.77;;
11943;SDS011;6031;50.220;10.122;2023-04-23T00:26:19;3.07;;;2.87;;
11943;SDS011;6031;50.220;10.122;2023-04-23T00:28:45;5.93;;;3.77;;
11943;SDS011;6031;50.220;10.122;2023-04-23T00:31:10;3.40;;;3.17;;
11943;SDS011;6031;50.220;10.122;2023-04-23T00:33:36;3.70;;;3.30;;
11943;SDS011;6031;50.220;10.122;2023-04-23T00:36:02;4.63;;;3.97;;
11943;SDS011;6031;50.220;10.122;2023-04-23T00:38:28;6.73;;;6.00;;
11943;SDS011;6031;50.220;10.122;2023-04-23T00:40:53;3.33;;;2.97;;
11943;SDS011;6031;50.220;10.122;2023-04-23T00:43:19;3.70;;;2.97;;
11943;SDS011;6031;50.220;10.122;2023-04-23T00:45:45;3.33;;;2.63;;
11943;SDS011;6031;50.220;10.122;2023-04-23T00:48:11;7.50;;;5.83;;
11943;SDS011;6031;50.220;10.122;2023-04-23T00:50:37;3.70;;;3.40;;
11943;SDS011;6031;50.220;10.122;2023-04-23T00:53:02;4.60;;;2.80;;
11943;SDS011;6031;50.220;10.122;2023-04-23T00:55:28;4.23;;;3.03;;
11943;SDS011;6031;50.220;10.122;2023-04-23T00:57:54;3.83;;;3.10;;
11943;SDS011;6031;50.220;10.122;2023-04-23T01:00:20;3.63;;;2.67;;
11943;SDS011;6031;50.220;10.122;2023-04-23T01:02:46;4.00;;;3.10;;
11943;SDS011;6031;50.220;10.122;2023-04-23T01:05:13;4.07;;;3.63;;
11943;SDS011;6031;50.220;10.122;2023-04-23T01:07:42;7.60;;;4.63;;
11943;SDS011;6031;50.220;10.122;2023-04-23T01:10:08;2.97;;;2.77;;
11943;SDS011;6031;50.220;10.122;2023-04-23T01:12:36;4.07;;;2.90;;
11943;SDS011;6031;50.220;10.122;2023-04-23T01:15:01;6.30;;;3.87;;
11943;SDS011;6031;50.220;10.122;2023-04-23T01:17:28;5.70;;;3.10;;
11943;SDS011;6031;50.220;10.122;2023-04-23T01:19:53;3.17;;;2.87;;
11943;SDS011;6031;50.220;10.122;2023-04-23T01:22:19;6.67;;;6.07;;
11943;SDS011;6031;50.220;10.122;2023-04-23T01:24:45;5.37;;;3.13;;
11943;SDS011;6031;50.220;10.122;2023-04-23T01:27:11;3.80;;;2.60;;
11943;SDS011;6031;50.220;10.122;2023-04-23T01:29:37;3.07;;;2.77;;
11943;SDS011;6031;50.220;10.122;2023-04-23T01:32:03;3.47;;;2.83;;
11943;SDS011;6031;50.220;10.122;2023-04-23T01:34:30;3.37;;;3.07;;
11943;SDS011;6031;50.220;10.122;2023-04-23T01:36:57;3.03;;;2.83;;
11943;SDS011;6031;50.220;10.122;2023-04-23T01:39:23;3.43;;;3.13;;
11943;SDS011;6031;50.220;10.122;2023-04-23T01:41:49;3.00;;;2.67;;
11943;SDS011;6031;50.220;10.122;2023-04-23T01:44:15;2.60;;;2.40;;
11943;SDS011;6031;50.220;10.122;2023-04-23T01:46:40;3.33;;;3.07;;
11943;SDS011;6031;50.220;10.122;2023-04-23T01:49:06;2.80;;;2.60;;
11943;SDS011;6031;50.220;10.122;2023-04-23T01:51:32;2.70;;;2.50;;
11943;SDS011;6031;50.220;10.122;2023-04-23T01:53:58;4.20;;;2.90;;
11943;SDS011;6031;50.220;10.122;2023-04-23T01:56:24;2.97;;;2.77;;
11943;SDS011;6031;50.220;10.122;2023-04-23T01:58:52;3.17;;;2.87;;
11943;SDS011;6031;50.220;10.122;2023-04-23T02:01:17;4.93;;;4.23;;
11943;SDS011;6031;50.220;10.122;2023-04-23T02:03:43;3.50;;;2.73;;
11943;SDS011;6031;50.220;10.122;2023-04-23T02:06:09;3.40;;;3.20;;
11943;SDS011;6031;50.220;10.122;2023-04-23T02:08:36;4.40;;;3.33;;
11943;SDS011;6031;50.220;10.122;2023-04-23T02:11:02;4.50;;;3.23;;
11943;SDS011;6031;50.220;10.122;2023-04-23T02:13:30;2.80;;;2.60;;
11943;SDS011;6031;50.220;10.122;2023-04-23T02:15:56;3.53;;;3.23;;
11943;SDS011;6031;50.220;10.122;2023-04-23T02:18:21;3.93;;;3.20;;
11943;SDS011;6031;50.220;10.122;2023-04-23T02:20:48;3.37;;;3.07;;
11943;SDS011;6031;50.220;10.122;2023-04-23T02:23:13;3.20;;;2.90;;
11943;SDS011;6031;50.220;10.122;2023-04-23T02:25:39;3.57;;;2.90;;
11943;SDS011;6031;50.220;10.122;2023-04-23T02:28:05;3.10;;;2.80;;
11943;SDS011;6031;50.220;10.122;2023-04-23T02:30:31;3.07;;;2.87;;
11943;SDS011;6031;50.220;10.122;2023-04-23T02:33:00;3.97;;;2.57;;
11943;SDS011;6031;50.220;10.122;2023-04-23T02:35:26;4.50;;;2.80;;
11943;SDS011;6031;50.220;10.122;2023-04-23T02:37:52;4.37;;;2.70;;
11943;SDS011;6031;50.220;10.122;2023-04-23T02:40:18;2.80;;;2.60;;
11943;SDS011;6031;50.220;10.122;2023-04-23T02:42:44;4.93;;;2.80;;
11943;SDS011;6031;50.220;10.122;2023-04-23T02:45:10;3.83;;;2.50;;
11943;SDS011;6031;50.220;10.122;2023-04-23T02:47:36;2.63;;;2.40;;
11943;SDS011;6031;50.220;10.122;2023-04-23T02:50:02;3.17;;;2.87;;
11943;SDS011;6031;50.220;10.122;2023-04-23T02:52:30;3.27;;;3.00;;
11943;SDS011;6031;50.220;10.122;2023-04-23T02:54:56;3.53;;;2.60;;
11943;SDS011;6031;50.220;10.122;2023-04-23T02:57:21;3.53;;;2.67;;
11943;SDS011;6031;50.220;10.122;2023-04-23T02:59:47;2.90;;;2.70;;
11943;SDS011;6031;50.220;10.122;2023-04-23T03:02:14;4.07;;;2.80;;
11943;SDS011;6031;50.220;10.122;2023-04-23T03:04:39;3.77;;;2.97;;
11943;SDS011;6031;50.220;10.122;2023-04-23T03:07:05;3.00;;;2.80;;
11943;SDS011;6031;50.220;10.122;2023-04-23T03:09:30;2.90;;;2.70;;
11943;SDS011;6031;50.220;10.122;2023-04-23T03:11:56;2.80;;;2.60;;
11943;SDS011;6031;50.220;10.122;2023-04-23T03:14:21;3.80;;;3.10;;
11943;SDS011;6031;50.220;10.122;2023-04-23T03:16:47;3.30;;;3.00;;
11943;SDS011;6031;50.220;10.122;2023-04-23T03:19:13;3.03;;;2.83;;
11943;SDS011;6031;50.220;10.122;2023-04-23T03:21:39;4.60;;;3.63;;
11943;SDS011;6031;50.220;10.122;2023-04-23T03:24:04;3.07;;;2.80;;
11943;SDS011;6031;50.220;10.122;2023-04-23T03:26:30;2.13;;;2.03;;
11943;SDS011;6031;50.220;10.122;2023-04-23T03:28:55;3.60;;;2.67;;
11943;SDS011;6031;50.220;10.122;2023-04-23T03:31:21;3.40;;;3.10;;
11943;SDS011;6031;50.220;10.122;2023-04-23T03:33:47;2.97;;;2.77;;
11943;SDS011;6031;50.220;10.122;2023-04-23T03:36:12;3.23;;;2.93;;
11943;SDS011;6031;50.220;10.122;2023-04-23T03:38:38;3.60;;;3.30;;
11943;SDS011;6031;50.220;10.122;2023-04-23T03:41:03;3.60;;;3.30;;
11943;SDS011;6031;50.220;10.122;2023-04-23T03:43:29;4.30;;;2.80;;
11943;SDS011;6031;50.220;10.122;2023-04-23T03:45:55;4.43;;;3.07;;
11943;SDS011;6031;50.220;10.122;2023-04-23T03:48:20;3.40;;;2.50;;
11943;SDS011;6031;50.220;10.122;2023-04-23T03:50:46;3.27;;;2.80;;
11943;SDS011;6031;50.220;10.122;2023-04-23T03:53:11;3.97;;;2.97;;
11943;SDS011;6031;50.220;10.122;2023-04-23T03:55:37;4.33;;;3.10;;
11943;SDS011;6031;50.220;10.122;2023-04-23T03:58:02;4.10;;;3.70;;
11943;SDS011;6031;50.220;10.122;2023-04-23T04:00:28;3.57;;;3.27;;
11943;SDS011;6031;50.220;10.122;2023-04-23T04:02:54;3.63;;;3.33;;
11943;SDS011;6031;50.220;10.122;2023-04-23T04:05:20;2.90;;;2.70;;
11943;SDS011;6031;50.220;10.122;2023-04-23T04:07:46;3.20;;;2.93;;
11943;SDS011;6031;50.220;10.122;2023-04-23T04:10:12;3.10;;;2.90;;
11943;SDS011;6031;50.220;10.122;2023-04-23T04:12:37;3.50;;;3.30;;
11943;SDS011;6031;50.220;10.122;2023-04-23T04:15:03;3.57;;;3.27;;
11943;SDS011;6031;50.220;10.122;2023-04-23T04:17:29;5.23;;;3.30;;
11943;SDS011;6031;50.220;10.122;2023-04-23T04:19:55;4.53;;;3.27;;
11943;SDS011;6031;50.220;10.122;2023-04-23T04:22:20;3.23;;;3.00;;
11943;SDS011;6031;50.220;10.122;2023-04-23T04:24:46;5.23;;;3.47;;
11943;SDS011;6031;50.220;10.122;2023-04-23T04:27:12;3.50;;;3.30;;
11943;SDS011;6031;50.220;10.122;2023-04-23T04:29:38;3.30;;;3.10;;
11943;SDS011;6031;50.220;10.122;2023-04-23T04:32:07;3.70;;;3.00;;
11943;SDS011;6031;50.220;10.122;2023-04-23T04:34:33;3.27;;;3.00;;
11943;SDS011;6031;50.220;10.122;2023-04-23T04:37:00;2.97;;;2.70;;
11943;SDS011;6031;50.220;10.122;2023-04-23T04:39:25;2.93;;;2.73;;
11943;SDS011;6031;50.220;10.122;2023-04-23T04:41:51;4.43;;;3.40;;
11943;SDS011;6031;50.220;10.122;2023-04-23T04:44:17;4.53;;;3.00;;
11943;SDS011;6031;50.220;10.122;2023-04-23T04:46:43;3.37;;;2.47;;
11943;SDS011;6031;50.220;10.122;2023-04-23T04:49:09;4.20;;;2.67;;
11943;SDS011;6031;50.220;10.122;2023-04-23T04:51:35;3.17;;;2.87;;
11943;SDS011;6031;50.220;10.122;2023-04-23T04:54:02;2.67;;;2.47;;
11943;SDS011;6031;50.220;10.122;2023-04-23T04:56:27;3.70;;;3.10;;
11943;SDS011;6031;50.220;10.122;2023-04-23T04:58:53;2.80;;;2.60;;
11943;SDS011;6031;50.220;10.122;2023-04-23T05:01:19;2.50;;;2.30;;
11943;SDS011;6031;50.220;10.122;2023-04-23T05:03:47;2.53;;;2.40;;
11943;SDS011;6031;50.220;10.122;2023-04-23T05:06:12;2.40;;;2.30;;
11943;SDS011;6031;50.220;10.122;2023-04-23T05:08:38;2.67;;;2.47;;
11943;SDS011;6031;50.220;10.122;2023-04-23T05:11:03;2.37;;;2.17;;
11943;SDS011;6031;50.220;10.122;2023-04-23T05:13:29;2.47;;;2.27;;
11943;SDS011;6031;50.220;10.122;2023-04-23T05:15:54;2.60;;;2.40;;
11943;SDS011;6031;50.220;10.122;2023-04-23T05:18:20;2.43;;;2.23;;
11943;SDS011;6031;50.220;10.122;2023-04-23T05:20:46;2.60;;;2.40;;
11943;SDS011;6031;50.220;10.122;2023-04-23T05:23:11;2.30;;;2.20;;
11943;SDS011;6031;50.220;10.122;2023-04-23T05:25:37;2.30;;;2.10;;
11943;SDS011;6031;50.220;10.122;2023-04-23T05:28:02;2.40;;;2.20;;
11943;SDS011;6031;50.220;10.122;2023-04-23T05:30:28;2.77;;;2.43;;
11943;SDS011;6031;50.220;10.122;2023-04-23T05:32:54;2.73;;;2.53;;
11943;SDS011;6031;50.220;10.122;2023-04-23T05:35:19;2.60;;;2.40;;
11943;SDS011;6031;50.220;10.122;2023-04-23T05:37:45;3.20;;;3.00;;
11943;SDS011;6031;50.220;10.122;2023-04-23T05:40:11;2.40;;;2.20;;
11943;SDS011;6031;50.220;10.122;2023-04-23T05:42:36;2.57;;;2.37;;
11943;SDS011;6031;50.220;10.122;2023-04-23T05:45:02;2.83;;;2.63;;
11943;SDS011;6031;50.220;10.122;2023-04-23T05:47:28;2.77;;;2.57;;
11943;SDS011;6031;50.220;10.122;2023-04-23T05:49:55;2.20;;;2.10;;
11943;SDS011;6031;50.220;10.122;2023-04-23T05:52:23;2.87;;;2.67;;
11943;SDS011;6031;50.220;10.122;2023-04-23T05:54:49;3.63;;;2.60;;
11943;SDS011;6031;50.220;10.122;2023-04-23T05:57:14;2.60;;;2.40;;
11943;SDS011;6031;50.220;10.122;2023-04-23T05:59:40;5.43;;;5.03;;
11943;SDS011;6031;50.220;10.122;2023-04-23T06:02:06;2.70;;;2.50;;
11943;SDS011;6031;50.220;10.122;2023-04-23T06:04:33;2.67;;;2.47;;
11943;SDS011;6031;50.220;10.122;2023-04-23T06:06:58;2.53;;;2.33;;
11943;SDS011;6031;50.220;10.122;2023-04-23T06:09:24;2.70;;;2.20;;
11943;SDS011;6031;50.220;10.122;2023-04-23T06:11:51;2.47;;;2.27;;
11943;SDS011;6031;50.220;10.122;2023-04-23T06:14:17;2.20;;;2.03;;
11943;SDS011;6031;50.220;10.122;2023-04-23T06:16:43;2.80;;;2.60;;
11943;SDS011;6031;50.220;10.122;2023-04-23T06:19:08;2.40;;;2.20;;
11943;SDS011;6031;50.220;10.122;2023-04-23T06:21:34;2.50;;;2.30;;
11943;SDS011;6031;50.220;10.122;2023-04-23T06:23:59;2.50;;;2.40;;
11943;SDS011;6031;50.220;10.122;2023-04-23T06:26:25;2.57;;;2.30;;
11943;SDS011;6031;50.220;10.122;2023-04-23T06:28:50;2.57;;;2.37;;
11943;SDS011;6031;50.220;10.122;2023-04-23T06:31:16;2.67;;;2.50;;
11943;SDS011;6031;50.220;10.122;2023-04-23T06:33:41;2.93;;;2.67;;
11943;SDS011;6031;50.220;10.122;2023-04-23T06:36:07;2.63;;;2.43;;
11943;SDS011;6031;50.220;10.122;2023-04-23T06:38:36;2.67;;;2.47;;
11943;SDS011;6031;50.220;10.122;2023-04-23T06:41:02;2.57;;;2.37;;
11943;SDS011;6031;50.220;10.122;2023-04-23T06:43:28;4.33;;;2.83;;
11943;SDS011;6031;50.220;10.122;2023-04-23T06:45:54;4.67;;;4.13;;
11943;SDS011;6031;50.220;10.122;2023-04-23T06:48:20;3.47;;;3.13;;
11943;SDS011;6031;50.220;10.122;2023-04-23T06:50:46;2.70;;;2.50;;
11943;SDS011;6031;50.220;10.122;2023-04-23T06:53:12;2.40;;;2.20;;
11943;SDS011;6031;50.220;10.122;2023-04-23T06:55:38;3.07;;;2.87;;
11943;SDS011;6031;50.220;10.122;2023-04-23T06:58:03;2.90;;;2.70;;
11943;SDS011;6031;50.220;10.122;2023-04-23T07:00:31;3.20;;;3.00;;
11943;SDS011;6031;50.220;10.122;2023-04-23T07:02:56;2.83;;;2.43;;
11943;SDS011;6031;50.220;10.122;2023-04-23T07:05:22;3.73;;;2.87;;
11943;SDS011;6031;50.220;10.122;2023-04-23T07:07:48;2.77;;;2.57;;
11943;SDS011;6031;50.220;10.122;2023-04-23T07:10:13;2.57;;;2.37;;
11943;SDS011;6031;50.220;10.122;2023-04-23T07:12:39;2.63;;;2.43;;
11943;SDS011;6031;50.220;10.122;2023-04-23T07:15:05;2.63;;;2.50;;
11943;SDS011;6031;50.220;10.122;2023-04-23T07:17:31;2.43;;;2.33;;
11943;SDS011;6031;50.220;10.122;2023-04-23T07:19:57;2.57;;;2.30;;
11943;SDS011;6031;50.220;10.122;2023-04-23T07:22:23;2.40;;;2.20;;
11943;SDS011;6031;50.220;10.122;2023-04-23T07:24:49;2.17;;;2.07;;
11943;SDS011;6031;50.220;10.122;2023-04-23T07:27:15;2.57;;;2.30;;
11943;SDS011;6031;50.220;10.122;2023-04-23T07:29:41;2.17;;;1.97;;
11943;SDS011;6031;50.220;10.122;2023-04-23T07:32:06;2.70;;;2.50;;
11943;SDS011;6031;50.220;10.122;2023-04-23T07:34:32;2.00;;;1.90;;
11943;SDS011;6031;50.220;10.122;2023-04-23T07:36:57;2.33;;;2.23;;
11943;SDS011;6031;50.220;10.122;2023-04-23T07:39:23;2.63;;;2.43;;
11943;SDS011;6031;50.220;10.122;2023-04-23T07:41:49;4.50;;;2.20;;
11943;SDS011;6031;50.220;10.122;2023-04-23T07:44:14;1.93;;;1.83;;
11943;SDS011;6031;50.220;10.122;2023-04-23T07:46:40;1.90;;;1.80;;
11943;SDS011;6031;50.220;10.122;2023-04-23T07:49:06;2.07;;;1.97;;
11943;SDS011;6031;50.220;10.122;2023-04-23T07:51:31;2.00;;;1.90;;
11943;SDS011;6031;50.220;10.122;2023-04-23T07:53:57;2.00;;;1.90;;
11943;SDS011;6031;50.220;10.122;2023-04-23T07:56:23;2.43;;;2.23;;
11943;SDS011;6031;50.220;10.122;2023-04-23T07:58:49;2.20;;;2.00;;
11943;SDS011;6031;50.220;10.122;2023-04-23T08:01:15;2.00;;;1.90;;
11943;SDS011;6031;50.220;10.122;2023-04-23T08:03:41;1.83;;;1.73;;
11943;SDS011;6031;50.220;10.122;2023-04-23T08:06:06;2.17;;;2.00;;
11943;SDS011;6031;50.220;10.122;2023-04-23T08:08:34;3.70;;;2.30;;
11943;SDS011;6031;50.220;10.122;2023-04-23T08:10:59;2.17;;;2.03;;
11943;SDS011;6031;50.220;10.122;2023-04-23T08:13:25;2.17;;;2.07;;
11943;SDS011;6031;50.220;10.122;2023-04-23T08:15:50;2.03;;;1.93;;
11943;SDS011;6031;50.220;10.122;2023-04-23T08:18:16;2.47;;;2.37;;
11943;SDS011;6031;50.220;10.122;2023-04-23T08:20:42;2.30;;;2.10;;
11943;SDS011;6031;50.220;10.122;2023-04-23T08:23:08;2.03;;;1.93;;
11943;SDS011;6031;50.220;10.122;2023-04-23T08:25:33;2.73;;;2.53;;
11943;SDS011;6031;50.220;10.122;2023-04-23T08:27:59;3.40;;;2.43;;
11943;SDS011;6031;50.220;10.122;2023-04-23T08:30:24;2.50;;;2.00;;
11943;SDS011;6031;50.220;10.122;2023-04-23T08:32:51;2.00;;;1.90;;
11943;SDS011;6031;50.220;10.122;2023-04-23T08:35:20;2.03;;;1.93;;
11943;SDS011;6031;50.220;10.122;2023-04-23T08:37:45;1.67;;;1.57;;
11943;SDS011;6031;50.220;10.122;2023-04-23T08:40:11;1.70;;;1.60;;
11943;SDS011;6031;50.220;10.122;2023-04-23T08:42:40;1.53;;;1.43;;
11943;SDS011;6031;50.220;10.122;2023-04-23T08:45:09;2.93;;;1.47;;
11943;SDS011;6031;50.220;10.122;2023-04-23T08:47:35;1.80;;;1.70;;
11943;SDS011;6031;50.220;10.122;2023-04-23T08:50:04;1.67;;;1.57;;
11943;SDS011;6031;50.220;10.122;2023-04-23T08:52:32;1.57;;;1.47;;
11943;SDS011;6031;50.220;10.122;2023-04-23T08:54:59;1.67;;;1.57;;
11943;SDS011;6031;50.220;10.122;2023-04-23T08:57:25;1.57;;;1.47;;
11943;SDS011;6031;50.220;10.122;2023-04-23T08:59:51;2.37;;;2.00;;
11943;SDS011;6031;50.220;10.122;2023-04-23T09:02:17;1.70;;;1.60;;
11943;SDS011;6031;50.220;10.122;2023-04-23T09:04:46;1.57;;;1.47;;
11943;SDS011;6031;50.220;10.122;2023-04-23T09:07:12;1.57;;;1.47;;
11943;SDS011;6031;50.220;10.122;2023-04-23T09:09:39;1.63;;;1.53;;
11943;SDS011;6031;50.220;10.122;2023-04-23T09:12:05;1.63;;;1.53;;
11943;SDS011;6031;50.220;10.122;2023-04-23T09:14:32;3.20;;;1.80;;
11943;SDS011;6031;50.220;10.122;2023-04-23T09:16:59;2.40;;;2.30;;
11943;SDS011;6031;50.220;10.122;2023-04-23T09:19:26;2.67;;;1.80;;
11943;SDS011;6031;50.220;10.122;2023-04-23T09:21:52;2.93;;;1.83;;
11943;SDS011;6031;50.220;10.122;2023-04-23T09:24:18;5.00;;;2.10;;
11943;SDS011;6031;50.220;10.122;2023-04-23T09:26:47;8.93;;;2.10;;
11943;SDS011;6031;50.220;10.122;2023-04-23T09:29:23;6.67;;;1.80;;
11943;SDS011;6031;50.220;10.122;2023-04-23T09:31:53;2.00;;;1.90;;
11943;SDS011;6031;50.220;10.122;2023-04-23T09:34:21;1.83;;;1.73;;
11943;SDS011;6031;50.220;10.122;2023-04-23T09:36:48;2.17;;;1.87;;
11943;SDS011;6031;50.220;10.122;2023-04-23T09:39:15;2.43;;;1.80;;
11943;SDS011;6031;50.220;10.122;2023-04-23T09:41:46;3.13;;;2.30;;
11943;SDS011;6031;50.220;10.122;2023-04-23T09:44:16;1.70;;;1.60;;
11943;SDS011;6031;50.220;10.122;2023-04-23T09:46:42;2.93;;;1.70;;
11943;SDS011;6031;50.220;10.122;2023-04-23T09:49:08;2.33;;;1.50;;
11943;SDS011;6031;50.220;10.122;2023-04-23T09:51:38;2.20;;;1.80;;
11943;SDS011;6031;50.220;10.122;2023-04-23T09:54:13;1.63;;;1.53;;
11943;SDS011;6031;50.220;10.122;2023-04-23T09:56:40;2.10;;;2.00;;
11943;SDS011;6031;50.220;10.122;2023-04-23T09:59:19;2.13;;;1.90;;
11943;SDS011;6031;50.220;10.122;2023-04-23T10:01:45;1.93;;;1.83;;
11943;SDS011;6031;50.220;10.122;2023-04-23T10:04:11;1.73;;;1.63;;
11943;SDS011;6031;50.220;10.122;2023-04-23T10:06:39;1.67;;;1.40;;
11943;SDS011;6031;50.220;10.122;2023-04-23T10:09:04;1.90;;;1.80;;
11943;SDS011;6031;50.220;10.122;2023-04-23T10:11:30;2.77;;;2.00;;
11943;SDS011;6031;50.220;10.122;2023-04-23T10:13:55;1.57;;;1.47;;
11943;SDS011;6031;50.220;10.122;2023-04-23T10:16:21;1.53;;;1.43;;
11943;SDS011;6031;50.220;10.122;2023-04-23T10:18:48;2.67;;;1.60;;
11943;SDS011;6031;50.220;10.122;2023-04-23T10:21:16;1.40;;;1.40;;
11943;SDS011;6031;50.220;10.122;2023-04-23T10:23:43;2.00;;;1.90;;
11943;SDS011;6031;50.220;10.122;2023-04-23T10:26:14;1.90;;;1.80;;
11943;SDS011;6031;50.220;10.122;2023-04-23T10:28:40;1.77;;;1.67;;
11943;SDS011;6031;50.220;10.122;2023-04-23T10:31:10;2.20;;;2.00;;
11943;SDS011;6031;50.220;10.122;2023-04-23T10:33:36;2.37;;;2.17;;
11943;SDS011;6031;50.220;10.122;2023-04-23T10:36:02;2.13;;;1.60;;
11943;SDS011;6031;50.220;10.122;2023-04-23T10:38:28;2.23;;;2.07;;
11943;SDS011;6031;50.220;10.122;2023-04-23T10:40:54;1.80;;;1.70;;
11943;SDS011;6031;50.220;10.122;2023-04-23T10:43:22;2.00;;;1.90;;
11943;SDS011;6031;50.220;10.122;2023-04-23T10:45:48;1.70;;;1.60;;
11943;SDS011;6031;50.220;10.122;2023-04-23T10:48:14;1.73;;;1.60;;
11943;SDS011;6031;50.220;10.122;2023-04-23T10:50:41;2.63;;;1.63;;
11943;SDS011;6031;50.220;10.122;2023-04-23T10:53:17;1.97;;;1.60;;
11943;SDS011;6031;50.220;10.122;2023-04-23T10:55:45;1.60;;;1.47;;
11943;SDS011;6031;50.220;10.122;2023-04-23T10:58:11;3.77;;;1.63;;
11943;SDS011;6031;50.220;10.122;2023-04-23T11:03:25;1.60;;;1.50;;
11943;SDS011;6031;50.220;10.122;2023-04-23T11:05:53;2.07;;;1.97;;
11943;SDS011;6031;50.220;10.122;2023-04-23T11:08:19;2.20;;;1.90;;
11943;SDS011;6031;50.220;10.122;2023-04-23T11:10:53;2.17;;;1.57;;
11943;SDS011;6031;50.220;10.122;2023-04-23T11:13:27;3.13;;;1.73;;
11943;SDS011;6031;50.220;10.122;2023-04-23T11:16:12;3.30;;;1.77;;
11943;SDS011;6031;50.220;10.122;2023-04-23T11:18:55;1.87;;;1.77;;
11943;SDS011;6031;50.220;10.122;2023-04-23T11:21:21;1.97;;;1.73;;
11943;SDS011;6031;50.220;10.122;2023-04-23T11:24:07;1.73;;;1.63;;
11943;SDS011;6031;50.220;10.122;2023-04-23T11:26:33;1.60;;;1.50;;
11943;SDS011;6031;50.220;10.122;2023-04-23T11:29:00;2.27;;;1.50;;
11943;SDS011;6031;50.220;10.122;2023-04-23T11:31:28;2.60;;;1.60;;
11943;SDS011;6031;50.220;10.122;2023-04-23T11:33:53;1.50;;;1.40;;
11943;SDS011;6031;50.220;10.122;2023-04-23T11:36:19;1.70;;;1.30;;
11943;SDS011;6031;50.220;10.122;2023-04-23T11:38:46;1.90;;;1.00;;
11943;SDS011;6031;50.220;10.122;2023-04-23T11:41:11;3.43;;;1.50;;
11943;SDS011;6031;50.220;10.122;2023-04-23T11:43:37;1.60;;;1.50;;
11943;SDS011;6031;50.220;10.122;2023-04-23T11:46:03;1.30;;;1.20;;
11943;SDS011;6031;50.220;10.122;2023-04-23T11:48:28;2.27;;;1.30;;
11943;SDS011;6031;50.220;10.122;2023-04-23T11:50:54;1.33;;;1.23;;
11943;SDS011;6031;50.220;10.122;2023-04-23T11:53:20;1.93;;;1.60;;
11943;SDS011;6031;50.220;10.122;2023-04-23T11:55:47;1.20;;;1.20;;
11943;SDS011;6031;50.220;10.122;2023-04-23T11:58:16;1.77;;;1.00;;
11943;SDS011;6031;50.220;10.122;2023-04-23T12:00:42;1.17;;;1.07;;
11943;SDS011;6031;50.220;10.122;2023-04-23T12:03:07;2.30;;;1.20;;
11943;SDS011;6031;50.220;10.122;2023-04-23T12:05:39;1.30;;;1.20;;
11943;SDS011;6031;50.220;10.122;2023-04-23T12:08:08;1.23;;;1.23;;
11943;SDS011;6031;50.220;10.122;2023-04-23T12:10:40;1.80;;;1.30;;
11943;SDS011;6031;50.220;10.122;2023-04-23T12:13:12;1.67;;;1.33;;
11943;SDS011;6031;50.220;10.122;2023-04-23T12:15:45;1.23;;;1.13;;
11943;SDS011;6031;50.220;10.122;2023-04-23T12:18:28;1.30;;;1.20;;
11943;SDS011;6031;50.220;10.122;2023-04-23T12:20:53;1.43;;;1.33;;
11943;SDS011;6031;50.220;10.122;2023-04-23T12:23:25;3.23;;;1.67;;
11943;SDS011;6031;50.220;10.122;2023-04-23T12:25:54;1.87;;;1.77;;
11943;SDS011;6031;50.220;10.122;2023-04-23T12:28:23;1.57;;;1.47;;
11943;SDS011;6031;50.220;10.122;2023-04-23T12:30:50;1.30;;;1.30;;
11943;SDS011;6031;50.220;10.122;2023-04-23T12:33:16;1.63;;;1.53;;
11943;SDS011;6031;50.220;10.122;2023-04-23T12:35:49;1.33;;;1.30;;
11943;SDS011;6031;50.220;10.122;2023-04-23T12:40:48;1.60;;;1.50;;
11943;SDS011;6031;50.220;10.122;2023-04-23T12:43:15;1.43;;;1.40;;
11943;SDS011;6031;50.220;10.122;2023-04-23T12:45:40;3.03;;;1.30;;
11943;SDS011;6031;50.220;10.122;2023-04-23T12:48:06;1.63;;;1.30;;
11943;SDS011;6031;50.220;10.122;2023-04-23T12:50:31;1.23;;;0.97;;
11943;SDS011;6031;50.220;10.122;2023-04-23T12:52:57;1.87;;;1.10;;
11943;SDS011;6031;50.220;10.122;2023-04-23T12:55:22;3.47;;;1.27;;
11943;SDS011;6031;50.220;10.122;2023-04-23T12:57:48;1.20;;;1.10;;
11943;SDS011;6031;50.220;10.122;2023-04-23T13:00:13;1.30;;;1.20;;
11943;SDS011;6031;50.220;10.122;2023-04-23T13:02:39;0.80;;;0.80;;
11943;SDS011;6031;50.220;10.122;2023-04-23T13:05:05;1.37;;;1.17;;
11943;SDS011;6031;50.220;10.122;2023-04-23T13:07:31;2.00;;;1.10;;
11943;SDS011;6031;50.220;10.122;2023-04-23T13:09:56;1.60;;;1.07;;
11943;SDS011;6031;50.220;10.122;2023-04-23T13:12:23;1.73;;;0.93;;
11943;SDS011;6031;50.220;10.122;2023-04-23T13:14:49;0.90;;;0.90;;
11943;SDS011;6031;50.220;10.122;2023-04-23T13:17:14;1.10;;;1.03;;
11943;SDS011;6031;50.220;10.122;2023-04-23T13:19:40;1.23;;;1.13;;
11943;SDS011;6031;50.220;10.122;2023-04-23T13:22:06;1.23;;;1.03;;
11943;SDS011;6031;50.220;10.122;2023-04-23T13:24:31;4.33;;;1.60;;
11943;SDS011;6031;50.220;10.122;2023-04-23T13:26:57;1.17;;;1.03;;
11943;SDS011;6031;50.220;10.122;2023-04-23T13:29:23;1.13;;;1.13;;
11943;SDS011;6031;50.220;10.122;2023-04-23T13:31:51;1.10;;;1.00;;
11943;SDS011;6031;50.220;10.122;2023-04-23T13:34:17;1.30;;;1.17;;
11943;SDS011;6031;50.220;10.122;2023-04-23T13:36:43;0.70;;;0.70;;
11943;SDS011;6031;50.220;10.122;2023-04-23T13:39:08;1.13;;;1.07;;
11943;SDS011;6031;50.220;10.122;2023-04-23T13:41:36;0.87;;;0.87;;
11943;SDS011;6031;50.220;10.122;2023-04-23T13:44:01;2.40;;;1.03;;
11943;SDS011;6031;50.220;10.122;2023-04-23T13:46:27;1.27;;;1.17;;
11943;SDS011;6031;50.220;10.122;2023-04-23T13:48:53;1.00;;;1.00;;
11943;SDS011;6031;50.220;10.122;2023-04-23T13:51:18;1.43;;;1.10;;
11943;SDS011;6031;50.220;10.122;2023-04-23T13:53:44;2.10;;;1.20;;
11943;SDS011;6031;50.220;10.122;2023-04-23T13:56:09;1.30;;;1.10;;
11943;SDS011;6031;50.220;10.122;2023-04-23T13:58:35;2.43;;;1.30;;
11943;SDS011;6031;50.220;10.122;2023-04-23T14:01:00;1.10;;;1.10;;
11943;SDS011;6031;50.220;10.122;2023-04-23T14:03:26;2.33;;;0.97;;
11943;SDS011;6031;50.220;10.122;2023-04-23T14:05:51;4.00;;;1.00;;
11943;SDS011;6031;50.220;10.122;2023-04-23T14:08:17;0.90;;;0.90;;
11943;SDS011;6031;50.220;10.122;2023-04-23T14:10:42;0.70;;;0.70;;
11943;SDS011;6031;50.220;10.122;2023-04-23T14:13:08;1.10;;;1.10;;
11943;SDS011;6031;50.220;10.122;2023-04-23T14:15:33;0.83;;;0.83;;
11943;SDS011;6031;50.220;10.122;2023-04-23T14:17:59;1.30;;;1.20;;
11943;SDS011;6031;50.220;10.122;2023-04-23T14:20:25;1.30;;;1.20;;
11943;SDS011;6031;50.220;10.122;2023-04-23T14:22:54;1.40;;;1.30;;
11943;SDS011;6031;50.220;10.122;2023-04-23T14:25:34;1.13;;;1.13;;
11943;SDS011;6031;50.220;10.122;2023-04-23T14:28:23;1.00;;;1.00;;
11943;SDS011;6031;50.220;10.122;2023-04-23T14:31:02;0.90;;;0.90;;
11943;SDS011;6031;50.220;10.122;2023-04-23T14:33:28;1.30;;;1.20;;
11943;SDS011;6031;50.220;10.122;2023-04-23T14:35:53;1.60;;;1.50;;
11943;SDS011;6031;50.220;10.122;2023-04-23T14:38:19;1.70;;;1.57;;
11943;SDS011;6031;50.220;10.122;2023-04-23T14:40:45;0.90;;;0.90;;
11943;SDS011;6031;50.220;10.122;2023-04-23T14:43:10;1.60;;;1.00;;
11943;SDS011;6031;50.220;10.122;2023-04-23T14:45:36;1.23;;;1.13;;
11943;SDS011;6031;50.220;10.122;2023-04-23T14:48:01;2.57;;;1.10;;
11943;SDS011;6031;50.220;10.122;2023-04-23T14:50:27;0.60;;;0.60;;